sensor_id;sensor_type;location;lat;lon;timestamp;P1;durP1;ratioP1;P2;durP2;ratioP2
59263;SDS011;45030;42.720;23.344;2023-07-20T00:01:57;4.73;;;1.30;;
59263;SDS011;45030;42.720;23.344;2023-07-20T00:04:23;2.72;;;1.23;;
59263;SDS011;45030;42.720;23.344;2023-07-20T00:06:48;5.90;;;1.33;;
59263;SDS011;45030;42.720;23.344;2023-07-20T00:09:13;5.65;;;1.75;;
59263;SDS011;45030;42.720;23.344;2023-07-20T00:11:39;3.78;;;1.15;;
59263;SDS011;45030;42.720;23.344;2023-07-20T00:14:05;5.07;;;1.80;;
59263;SDS011;45030;42.720;23.344;2023-07-20T00:16:30;6.45;;;1.70;;
59263;SDS011;45030;42.720;23.344;2023-07-20T00:18:55;4.28;;;1.80;;
59263;SDS011;45030;42.720;23.344;2023-07-20T00:21:20;6.05;;;1.40;;
59263;SDS011;45030;42.720;23.344;2023-07-20T00:23:46;3.50;;;1.27;;
59263;SDS011;45030;42.720;23.344;2023-07-20T00:26:11;6.25;;;1.75;;
59263;SDS011;45030;42.720;23.344;2023-07-20T00:28:36;6.40;;;1.80;;
59263;SDS011;45030;42.720;23.344;2023-07-20T00:31:01;5.60;;;1.73;;
59263;SDS011;45030;42.720;23.344;2023-07-20T00:33:28;4.80;;;1.80;;
59263;SDS011;45030;42.720;23.344;2023-07-20T00:35:53;5.57;;;1.95;;
59263;SDS011;45030;42.720;23.344;2023-07-20T00:38:18;5.13;;;1.83;;
59263;SDS011;45030;42.720;23.344;2023-07-20T00:40:44;4.63;;;1.60;;
59263;SDS011;45030;42.720;23.344;2023-07-20T00:43:09;4.22;;;1.60;;
59263;SDS011;45030;42.720;23.344;2023-07-20T00:45:34;1.95;;;1.15;;
59263;SDS011;45030;42.720;23.344;2023-07-20T00:48:01;2.53;;;1.48;;
59263;SDS011;45030;42.720;23.344;2023-07-20T00:50:27;3.45;;;1.17;;
59263;SDS011;45030;42.720;23.344;2023-07-20T00:52:54;4.68;;;1.45;;
59263;SDS011;45030;42.720;23.344;2023-07-20T00:55:19;3.10;;;1.40;;
59263;SDS011;45030;42.720;23.344;2023-07-20T00:57:44;3.72;;;1.30;;
59263;SDS011;45030;42.720;23.344;2023-07-20T01:00:10;5.68;;;1.38;;
59263;SDS011;45030;42.720;23.344;2023-07-20T01:02:35;4.65;;;1.42;;
59263;SDS011;45030;42.720;23.344;2023-07-20T01:05:01;3.05;;;1.40;;
59263;SDS011;45030;42.720;23.344;2023-07-20T01:07:31;3.33;;;1.40;;
59263;SDS011;45030;42.720;23.344;2023-07-20T01:15:00;4.70;;;2.17;;
59263;SDS011;45030;42.720;23.344;2023-07-20T01:17:26;3.88;;;1.27;;
59263;SDS011;45030;42.720;23.344;2023-07-20T01:19:51;4.30;;;1.90;;
59263;SDS011;45030;42.720;23.344;2023-07-20T01:27:49;4.30;;;1.35;;
59263;SDS011;45030;42.720;23.344;2023-07-20T01:30:25;6.93;;;1.58;;
59263;SDS011;45030;42.720;23.344;2023-07-20T01:32:53;7.05;;;1.85;;
59263;SDS011;45030;42.720;23.344;2023-07-20T01:35:19;3.90;;;1.45;;
59263;SDS011;45030;42.720;23.344;2023-07-20T01:37:46;5.95;;;1.73;;
59263;SDS011;45030;42.720;23.344;2023-07-20T01:40:12;4.18;;;1.73;;
59263;SDS011;45030;42.720;23.344;2023-07-20T01:42:38;4.47;;;1.58;;
59263;SDS011;45030;42.720;23.344;2023-07-20T01:45:03;7.20;;;1.60;;
59263;SDS011;45030;42.720;23.344;2023-07-20T01:47:29;4.10;;;2.15;;
59263;SDS011;45030;42.720;23.344;2023-07-20T01:49:54;6.60;;;1.50;;
59263;SDS011;45030;42.720;23.344;2023-07-20T01:52:19;3.30;;;1.50;;
59263;SDS011;45030;42.720;23.344;2023-07-20T01:54:44;2.83;;;1.42;;
59263;SDS011;45030;42.720;23.344;2023-07-20T01:57:10;4.30;;;2.53;;
59263;SDS011;45030;42.720;23.344;2023-07-20T01:59:35;2.73;;;1.20;;
59263;SDS011;45030;42.720;23.344;2023-07-20T02:02:00;7.45;;;1.58;;
59263;SDS011;45030;42.720;23.344;2023-07-20T02:04:25;2.65;;;1.30;;
59263;SDS011;45030;42.720;23.344;2023-07-20T02:06:51;4.55;;;1.10;;
59263;SDS011;45030;42.720;23.344;2023-07-20T02:09:16;5.40;;;1.95;;
59263;SDS011;45030;42.720;23.344;2023-07-20T02:11:41;2.90;;;1.65;;
59263;SDS011;45030;42.720;23.344;2023-07-20T02:14:06;2.80;;;1.40;;
59263;SDS011;45030;42.720;23.344;2023-07-20T02:16:31;3.63;;;1.40;;
59263;SDS011;45030;42.720;23.344;2023-07-20T02:18:57;3.97;;;1.77;;
59263;SDS011;45030;42.720;23.344;2023-07-20T02:21:23;5.57;;;1.92;;
59263;SDS011;45030;42.720;23.344;2023-07-20T02:23:48;5.30;;;1.92;;
59263;SDS011;45030;42.720;23.344;2023-07-20T02:26:13;8.23;;;2.05;;
59263;SDS011;45030;42.720;23.344;2023-07-20T02:28:39;4.55;;;1.92;;
59263;SDS011;45030;42.720;23.344;2023-07-20T02:31:04;5.33;;;2.43;;
59263;SDS011;45030;42.720;23.344;2023-07-20T02:33:30;4.15;;;1.98;;
59263;SDS011;45030;42.720;23.344;2023-07-20T02:35:55;3.38;;;1.65;;
59263;SDS011;45030;42.720;23.344;2023-07-20T02:38:20;3.63;;;1.70;;
59263;SDS011;45030;42.720;23.344;2023-07-20T02:40:45;5.70;;;1.47;;
59263;SDS011;45030;42.720;23.344;2023-07-20T02:43:10;5.60;;;1.43;;
59263;SDS011;45030;42.720;23.344;2023-07-20T02:45:39;4.33;;;1.70;;
59263;SDS011;45030;42.720;23.344;2023-07-20T02:48:04;3.92;;;1.30;;
59263;SDS011;45030;42.720;23.344;2023-07-20T02:50:32;5.03;;;1.63;;
59263;SDS011;45030;42.720;23.344;2023-07-20T02:52:58;3.33;;;1.70;;
59263;SDS011;45030;42.720;23.344;2023-07-20T02:55:23;7.07;;;2.17;;
59263;SDS011;45030;42.720;23.344;2023-07-20T02:57:48;7.03;;;2.10;;
59263;SDS011;45030;42.720;23.344;2023-07-20T03:00:14;7.25;;;2.17;;
59263;SDS011;45030;42.720;23.344;2023-07-20T03:02:40;3.00;;;1.45;;
59263;SDS011;45030;42.720;23.344;2023-07-20T03:05:06;5.78;;;2.50;;
59263;SDS011;45030;42.720;23.344;2023-07-20T03:07:32;3.60;;;1.90;;
59263;SDS011;45030;42.720;23.344;2023-07-20T03:09:57;7.50;;;2.83;;
59263;SDS011;45030;42.720;23.344;2023-07-20T03:12:22;6.20;;;2.72;;
59263;SDS011;45030;42.720;23.344;2023-07-20T03:14:49;5.70;;;2.25;;
59263;SDS011;45030;42.720;23.344;2023-07-20T03:17:14;8.75;;;2.47;;
59263;SDS011;45030;42.720;23.344;2023-07-20T03:19:40;6.50;;;2.57;;
59263;SDS011;45030;42.720;23.344;2023-07-20T03:22:05;8.57;;;2.67;;
59263;SDS011;45030;42.720;23.344;2023-07-20T03:24:30;6.60;;;2.80;;
59263;SDS011;45030;42.720;23.344;2023-07-20T03:26:55;4.20;;;2.63;;
59263;SDS011;45030;42.720;23.344;2023-07-20T03:29:20;5.30;;;2.50;;
59263;SDS011;45030;42.720;23.344;2023-07-20T03:31:46;6.33;;;2.50;;
59263;SDS011;45030;42.720;23.344;2023-07-20T03:34:11;9.87;;;2.77;;
59263;SDS011;45030;42.720;23.344;2023-07-20T03:36:36;4.80;;;3.20;;
59263;SDS011;45030;42.720;23.344;2023-07-20T03:39:01;5.57;;;2.10;;
59263;SDS011;45030;42.720;23.344;2023-07-20T03:41:28;9.18;;;2.60;;
59263;SDS011;45030;42.720;23.344;2023-07-20T03:43:53;6.73;;;2.83;;
59263;SDS011;45030;42.720;23.344;2023-07-20T03:46:19;5.20;;;3.80;;
59263;SDS011;45030;42.720;23.344;2023-07-20T03:48:44;3.55;;;2.45;;
59263;SDS011;45030;42.720;23.344;2023-07-20T03:51:09;6.13;;;2.42;;
59263;SDS011;45030;42.720;23.344;2023-07-20T03:53:34;7.20;;;2.53;;
59263;SDS011;45030;42.720;23.344;2023-07-20T03:56:00;8.75;;;2.67;;
59263;SDS011;45030;42.720;23.344;2023-07-20T03:58:25;2.90;;;1.83;;
59263;SDS011;45030;42.720;23.344;2023-07-20T04:00:51;7.57;;;2.07;;
59263;SDS011;45030;42.720;23.344;2023-07-20T04:03:16;6.47;;;2.30;;
59263;SDS011;45030;42.720;23.344;2023-07-20T04:05:42;3.85;;;1.77;;
59263;SDS011;45030;42.720;23.344;2023-07-20T04:08:08;3.25;;;1.83;;
59263;SDS011;45030;42.720;23.344;2023-07-20T04:10:33;5.25;;;1.95;;
59263;SDS011;45030;42.720;23.344;2023-07-20T04:12:59;6.28;;;2.03;;
59263;SDS011;45030;42.720;23.344;2023-07-20T04:15:24;6.45;;;2.13;;
59263;SDS011;45030;42.720;23.344;2023-07-20T04:17:50;5.43;;;2.60;;
59263;SDS011;45030;42.720;23.344;2023-07-20T04:20:15;7.13;;;2.30;;
59263;SDS011;45030;42.720;23.344;2023-07-20T04:22:43;9.32;;;3.20;;
59263;SDS011;45030;42.720;23.344;2023-07-20T04:25:08;7.20;;;2.88;;
59263;SDS011;45030;42.720;23.344;2023-07-20T04:27:34;4.60;;;2.80;;
59263;SDS011;45030;42.720;23.344;2023-07-20T04:30:00;7.47;;;2.22;;
59263;SDS011;45030;42.720;23.344;2023-07-20T04:32:25;13.18;;;3.15;;
59263;SDS011;45030;42.720;23.344;2023-07-20T04:34:50;5.35;;;2.35;;
59263;SDS011;45030;42.720;23.344;2023-07-20T04:37:16;5.50;;;2.57;;
59263;SDS011;45030;42.720;23.344;2023-07-20T04:39:41;4.57;;;2.15;;
59263;SDS011;45030;42.720;23.344;2023-07-20T04:42:06;9.30;;;3.07;;
59263;SDS011;45030;42.720;23.344;2023-07-20T04:44:31;4.60;;;2.60;;
59263;SDS011;45030;42.720;23.344;2023-07-20T04:46:56;6.83;;;2.50;;
59263;SDS011;45030;42.720;23.344;2023-07-20T04:49:22;9.10;;;2.92;;
59263;SDS011;45030;42.720;23.344;2023-07-20T04:51:47;5.83;;;2.80;;
59263;SDS011;45030;42.720;23.344;2023-07-20T04:54:12;9.47;;;3.43;;
59263;SDS011;45030;42.720;23.344;2023-07-20T04:56:38;7.07;;;2.53;;
59263;SDS011;45030;42.720;23.344;2023-07-20T04:59:03;3.50;;;2.10;;
59263;SDS011;45030;42.720;23.344;2023-07-20T05:01:29;4.38;;;1.63;;
59263;SDS011;45030;42.720;23.344;2023-07-20T05:03:54;4.63;;;2.67;;
59263;SDS011;45030;42.720;23.344;2023-07-20T05:06:19;5.22;;;2.80;;
59263;SDS011;45030;42.720;23.344;2023-07-20T05:08:44;8.63;;;1.90;;
59263;SDS011;45030;42.720;23.344;2023-07-20T05:11:10;5.90;;;2.20;;
59263;SDS011;45030;42.720;23.344;2023-07-20T05:13:36;5.93;;;2.30;;
59263;SDS011;45030;42.720;23.344;2023-07-20T05:16:01;6.50;;;2.80;;
59263;SDS011;45030;42.720;23.344;2023-07-20T05:18:26;12.93;;;4.20;;
59263;SDS011;45030;42.720;23.344;2023-07-20T05:20:51;5.23;;;3.40;;
59263;SDS011;45030;42.720;23.344;2023-07-20T05:23:17;10.82;;;3.03;;
59263;SDS011;45030;42.720;23.344;2023-07-20T05:25:43;8.05;;;3.13;;
59263;SDS011;45030;42.720;23.344;2023-07-20T05:28:08;4.90;;;2.50;;
59263;SDS011;45030;42.720;23.344;2023-07-20T05:30:33;7.20;;;3.30;;
59263;SDS011;45030;42.720;23.344;2023-07-20T05:32:59;8.75;;;3.30;;
59263;SDS011;45030;42.720;23.344;2023-07-20T05:35:25;4.67;;;2.67;;
59263;SDS011;45030;42.720;23.344;2023-07-20T05:37:50;5.78;;;2.90;;
59263;SDS011;45030;42.720;23.344;2023-07-20T05:40:15;6.23;;;2.30;;
59263;SDS011;45030;42.720;23.344;2023-07-20T05:42:44;4.20;;;2.05;;
59263;SDS011;45030;42.720;23.344;2023-07-20T05:45:09;6.65;;;2.35;;
59263;SDS011;45030;42.720;23.344;2023-07-20T05:47:34;5.22;;;1.90;;
59263;SDS011;45030;42.720;23.344;2023-07-20T05:50:00;6.75;;;2.42;;
59263;SDS011;45030;42.720;23.344;2023-07-20T05:52:25;3.65;;;2.45;;
59263;SDS011;45030;42.720;23.344;2023-07-20T05:54:51;7.63;;;3.70;;
59263;SDS011;45030;42.720;23.344;2023-07-20T05:57:16;7.88;;;3.40;;
59263;SDS011;45030;42.720;23.344;2023-07-20T05:59:41;6.22;;;2.80;;
59263;SDS011;45030;42.720;23.344;2023-07-20T06:02:09;6.35;;;3.88;;
59263;SDS011;45030;42.720;23.344;2023-07-20T06:04:34;8.40;;;3.85;;
59263;SDS011;45030;42.720;23.344;2023-07-20T06:06:59;7.93;;;3.07;;
59263;SDS011;45030;42.720;23.344;2023-07-20T06:09:25;7.63;;;2.63;;
59263;SDS011;45030;42.720;23.344;2023-07-20T06:11:50;7.07;;;3.63;;
59263;SDS011;45030;42.720;23.344;2023-07-20T06:14:15;5.63;;;2.38;;
59263;SDS011;45030;42.720;23.344;2023-07-20T06:16:41;5.85;;;2.55;;
59263;SDS011;45030;42.720;23.344;2023-07-20T06:19:06;6.07;;;3.05;;
59263;SDS011;45030;42.720;23.344;2023-07-20T06:21:31;6.47;;;2.87;;
59263;SDS011;45030;42.720;23.344;2023-07-20T06:23:57;7.53;;;3.17;;
59263;SDS011;45030;42.720;23.344;2023-07-20T06:26:22;9.13;;;2.58;;
59263;SDS011;45030;42.720;23.344;2023-07-20T06:28:47;6.85;;;2.67;;
59263;SDS011;45030;42.720;23.344;2023-07-20T06:31:13;6.07;;;2.20;;
59263;SDS011;45030;42.720;23.344;2023-07-20T06:33:38;5.83;;;2.40;;
59263;SDS011;45030;42.720;23.344;2023-07-20T06:36:03;5.93;;;2.63;;
59263;SDS011;45030;42.720;23.344;2023-07-20T06:38:29;4.03;;;2.42;;
59263;SDS011;45030;42.720;23.344;2023-07-20T06:40:54;6.68;;;2.80;;
59263;SDS011;45030;42.720;23.344;2023-07-20T06:43:19;5.68;;;2.45;;
59263;SDS011;45030;42.720;23.344;2023-07-20T06:45:45;3.33;;;2.50;;
59263;SDS011;45030;42.720;23.344;2023-07-20T06:48:15;6.35;;;2.83;;
59263;SDS011;45030;42.720;23.344;2023-07-20T06:50:40;8.20;;;2.77;;
59263;SDS011;45030;42.720;23.344;2023-07-20T06:53:07;6.13;;;2.40;;
59263;SDS011;45030;42.720;23.344;2023-07-20T06:55:32;5.93;;;2.23;;
59263;SDS011;45030;42.720;23.344;2023-07-20T06:57:58;8.27;;;2.60;;
59263;SDS011;45030;42.720;23.344;2023-07-20T07:00:23;6.63;;;2.77;;
59263;SDS011;45030;42.720;23.344;2023-07-20T07:02:48;7.60;;;2.33;;
59263;SDS011;45030;42.720;23.344;2023-07-20T07:05:13;4.63;;;1.93;;
59263;SDS011;45030;42.720;23.344;2023-07-20T07:07:40;11.43;;;2.63;;
59263;SDS011;45030;42.720;23.344;2023-07-20T07:10:06;4.03;;;2.10;;
59263;SDS011;45030;42.720;23.344;2023-07-20T07:12:31;4.22;;;2.20;;
59263;SDS011;45030;42.720;23.344;2023-07-20T07:14:57;6.38;;;2.15;;
59263;SDS011;45030;42.720;23.344;2023-07-20T07:17:22;6.78;;;2.50;;
59263;SDS011;45030;42.720;23.344;2023-07-20T07:19:47;4.00;;;1.93;;
59263;SDS011;45030;42.720;23.344;2023-07-20T07:22:12;5.93;;;2.20;;
59263;SDS011;45030;42.720;23.344;2023-07-20T07:24:38;6.60;;;2.83;;
59263;SDS011;45030;42.720;23.344;2023-07-20T07:27:06;5.05;;;1.90;;
59263;SDS011;45030;42.720;23.344;2023-07-20T07:29:32;6.50;;;2.78;;
59263;SDS011;45030;42.720;23.344;2023-07-20T07:31:57;5.80;;;1.95;;
59263;SDS011;45030;42.720;23.344;2023-07-20T07:34:23;7.80;;;2.15;;
59263;SDS011;45030;42.720;23.344;2023-07-20T07:36:48;5.07;;;2.47;;
59263;SDS011;45030;42.720;23.344;2023-07-20T07:39:14;9.18;;;2.38;;
59263;SDS011;45030;42.720;23.344;2023-07-20T07:41:39;3.28;;;2.05;;
59263;SDS011;45030;42.720;23.344;2023-07-20T07:44:04;4.83;;;2.00;;
59263;SDS011;45030;42.720;23.344;2023-07-20T07:46:30;6.80;;;2.20;;
59263;SDS011;45030;42.720;23.344;2023-07-20T07:48:55;6.10;;;2.53;;
59263;SDS011;45030;42.720;23.344;2023-07-20T07:51:21;4.60;;;2.00;;
59263;SDS011;45030;42.720;23.344;2023-07-20T07:53:46;9.82;;;2.30;;
59263;SDS011;45030;42.720;23.344;2023-07-20T07:56:11;6.38;;;2.03;;
59263;SDS011;45030;42.720;23.344;2023-07-20T07:58:37;9.63;;;2.03;;
59263;SDS011;45030;42.720;23.344;2023-07-20T08:01:02;4.68;;;2.35;;
59263;SDS011;45030;42.720;23.344;2023-07-20T08:03:27;5.40;;;2.70;;
59263;SDS011;45030;42.720;23.344;2023-07-20T08:05:56;6.07;;;2.53;;
59263;SDS011;45030;42.720;23.344;2023-07-20T08:08:21;4.78;;;1.83;;
59263;SDS011;45030;42.720;23.344;2023-07-20T08:10:47;5.55;;;1.88;;
59263;SDS011;45030;42.720;23.344;2023-07-20T08:13:12;7.07;;;2.60;;
59263;SDS011;45030;42.720;23.344;2023-07-20T08:15:38;5.05;;;2.30;;
59263;SDS011;45030;42.720;23.344;2023-07-20T08:18:04;7.47;;;2.47;;
59263;SDS011;45030;42.720;23.344;2023-07-20T08:20:29;9.23;;;1.95;;
59263;SDS011;45030;42.720;23.344;2023-07-20T08:22:54;7.10;;;2.08;;
59263;SDS011;45030;42.720;23.344;2023-07-20T08:25:20;3.55;;;1.52;;
59263;SDS011;45030;42.720;23.344;2023-07-20T08:27:45;3.22;;;1.45;;
59263;SDS011;45030;42.720;23.344;2023-07-20T08:30:12;6.93;;;1.63;;
59263;SDS011;45030;42.720;23.344;2023-07-20T08:32:37;7.15;;;2.47;;
59263;SDS011;45030;42.720;23.344;2023-07-20T08:35:03;3.55;;;1.63;;
59263;SDS011;45030;42.720;23.344;2023-07-20T08:37:29;2.63;;;1.40;;
59263;SDS011;45030;42.720;23.344;2023-07-20T08:39:54;4.13;;;1.30;;
59263;SDS011;45030;42.720;23.344;2023-07-20T08:42:19;4.13;;;1.75;;
59263;SDS011;45030;42.720;23.344;2023-07-20T08:44:45;5.13;;;1.77;;
59263;SDS011;45030;42.720;23.344;2023-07-20T08:47:13;6.22;;;2.08;;
59263;SDS011;45030;42.720;23.344;2023-07-20T08:49:39;8.70;;;2.30;;
59263;SDS011;45030;42.720;23.344;2023-07-20T08:52:04;6.15;;;1.58;;
59263;SDS011;45030;42.720;23.344;2023-07-20T08:54:30;3.55;;;1.88;;
59263;SDS011;45030;42.720;23.344;2023-07-20T08:57:01;3.25;;;1.40;;
59263;SDS011;45030;42.720;23.344;2023-07-20T08:59:27;6.13;;;1.65;;
59263;SDS011;45030;42.720;23.344;2023-07-20T09:01:53;6.28;;;1.88;;
59263;SDS011;45030;42.720;23.344;2023-07-20T09:04:19;4.22;;;1.73;;
59263;SDS011;45030;42.720;23.344;2023-07-20T09:06:45;6.00;;;1.92;;
59263;SDS011;45030;42.720;23.344;2023-07-20T09:09:10;9.45;;;1.75;;
59263;SDS011;45030;42.720;23.344;2023-07-20T09:11:36;4.18;;;1.90;;
59263;SDS011;45030;42.720;23.344;2023-07-20T09:14:02;3.00;;;1.50;;
59263;SDS011;45030;42.720;23.344;2023-07-20T09:16:27;4.03;;;1.55;;
59263;SDS011;45030;42.720;23.344;2023-07-20T09:18:53;4.07;;;1.35;;
59263;SDS011;45030;42.720;23.344;2023-07-20T09:21:18;5.90;;;1.58;;
59263;SDS011;45030;42.720;23.344;2023-07-20T09:23:44;4.20;;;2.00;;
59263;SDS011;45030;42.720;23.344;2023-07-20T09:26:13;2.53;;;1.33;;
59263;SDS011;45030;42.720;23.344;2023-07-20T09:31:15;3.63;;;1.55;;
59263;SDS011;45030;42.720;23.344;2023-07-20T09:33:40;3.97;;;1.35;;
59263;SDS011;45030;42.720;23.344;2023-07-20T09:36:06;2.42;;;1.00;;
59263;SDS011;45030;42.720;23.344;2023-07-20T09:38:31;5.07;;;1.50;;
59263;SDS011;45030;42.720;23.344;2023-07-20T09:40:56;5.20;;;0.97;;
59263;SDS011;45030;42.720;23.344;2023-07-20T09:43:22;3.38;;;1.40;;
59263;SDS011;45030;42.720;23.344;2023-07-20T09:45:47;3.17;;;1.13;;
59263;SDS011;45030;42.720;23.344;2023-07-20T09:48:12;3.50;;;1.40;;
59263;SDS011;45030;42.720;23.344;2023-07-20T09:50:41;5.10;;;1.15;;
59263;SDS011;45030;42.720;23.344;2023-07-20T09:53:11;5.22;;;1.48;;
59263;SDS011;45030;42.720;23.344;2023-07-20T09:55:37;3.08;;;0.80;;
59263;SDS011;45030;42.720;23.344;2023-07-20T09:58:03;6.03;;;1.70;;
59263;SDS011;45030;42.720;23.344;2023-07-20T10:00:29;5.97;;;1.55;;
59263;SDS011;45030;42.720;23.344;2023-07-20T10:02:54;3.17;;;1.75;;
59263;SDS011;45030;42.720;23.344;2023-07-20T10:05:21;7.80;;;1.75;;
59263;SDS011;45030;42.720;23.344;2023-07-20T10:07:50;4.03;;;1.67;;
59263;SDS011;45030;42.720;23.344;2023-07-20T10:10:17;8.52;;;1.83;;
59263;SDS011;45030;42.720;23.344;2023-07-20T10:12:42;6.97;;;1.95;;
59263;SDS011;45030;42.720;23.344;2023-07-20T10:17:40;4.95;;;1.80;;
59263;SDS011;45030;42.720;23.344;2023-07-20T10:20:09;4.55;;;1.48;;
59263;SDS011;45030;42.720;23.344;2023-07-20T10:22:35;2.45;;;1.02;;
59263;SDS011;45030;42.720;23.344;2023-07-20T10:25:00;4.55;;;1.60;;
59263;SDS011;45030;42.720;23.344;2023-07-20T10:27:26;3.70;;;1.73;;
59263;SDS011;45030;42.720;23.344;2023-07-20T10:29:51;4.70;;;1.60;;
59263;SDS011;45030;42.720;23.344;2023-07-20T10:32:18;4.93;;;1.60;;
59263;SDS011;45030;42.720;23.344;2023-07-20T10:34:49;5.10;;;1.50;;
59263;SDS011;45030;42.720;23.344;2023-07-20T10:37:42;5.00;;;1.33;;
59263;SDS011;45030;42.720;23.344;2023-07-20T10:40:20;3.42;;;1.27;;
59263;SDS011;45030;42.720;23.344;2023-07-20T10:42:47;3.17;;;1.50;;
59263;SDS011;45030;42.720;23.344;2023-07-20T10:45:12;4.80;;;1.48;;
59263;SDS011;45030;42.720;23.344;2023-07-20T10:47:44;4.18;;;1.45;;
59263;SDS011;45030;42.720;23.344;2023-07-20T10:50:10;4.80;;;1.45;;
59263;SDS011;45030;42.720;23.344;2023-07-20T10:52:37;5.80;;;1.50;;
59263;SDS011;45030;42.720;23.344;2023-07-20T10:55:15;5.20;;;1.70;;
59263;SDS011;45030;42.720;23.344;2023-07-20T10:57:41;5.78;;;1.65;;
59263;SDS011;45030;42.720;23.344;2023-07-20T11:00:07;4.50;;;1.65;;
59263;SDS011;45030;42.720;23.344;2023-07-20T11:02:41;6.90;;;1.73;;
59263;SDS011;45030;42.720;23.344;2023-07-20T11:05:07;3.17;;;1.42;;
59263;SDS011;45030;42.720;23.344;2023-07-20T11:07:38;3.35;;;1.70;;
59263;SDS011;45030;42.720;23.344;2023-07-20T11:10:15;7.72;;;1.73;;
59263;SDS011;45030;42.720;23.344;2023-07-20T11:12:41;4.28;;;2.33;;
59263;SDS011;45030;42.720;23.344;2023-07-20T11:15:06;4.30;;;1.90;;
59263;SDS011;45030;42.720;23.344;2023-07-20T11:17:32;4.43;;;1.65;;
59263;SDS011;45030;42.720;23.344;2023-07-20T11:19:58;5.30;;;1.48;;
59263;SDS011;45030;42.720;23.344;2023-07-20T11:22:25;2.88;;;1.52;;
59263;SDS011;45030;42.720;23.344;2023-07-20T11:24:54;8.70;;;1.70;;
59263;SDS011;45030;42.720;23.344;2023-07-20T11:27:20;4.18;;;1.52;;
59263;SDS011;45030;42.720;23.344;2023-07-20T11:29:47;5.45;;;1.67;;
59263;SDS011;45030;42.720;23.344;2023-07-20T11:32:12;5.03;;;1.60;;
59263;SDS011;45030;42.720;23.344;2023-07-20T11:34:46;7.22;;;1.38;;
59263;SDS011;45030;42.720;23.344;2023-07-20T11:37:11;3.90;;;1.77;;
59263;SDS011;45030;42.720;23.344;2023-07-20T11:39:37;4.93;;;2.08;;
59263;SDS011;45030;42.720;23.344;2023-07-20T11:42:03;3.88;;;1.40;;
59263;SDS011;45030;42.720;23.344;2023-07-20T11:44:29;3.30;;;1.63;;
59263;SDS011;45030;42.720;23.344;2023-07-20T11:49:28;5.50;;;1.75;;
59263;SDS011;45030;42.720;23.344;2023-07-20T11:51:55;5.90;;;1.67;;
59263;SDS011;45030;42.720;23.344;2023-07-20T11:54:20;5.85;;;1.90;;
59263;SDS011;45030;42.720;23.344;2023-07-20T11:56:45;3.57;;;1.60;;
59263;SDS011;45030;42.720;23.344;2023-07-20T11:59:10;5.00;;;1.67;;
59263;SDS011;45030;42.720;23.344;2023-07-20T12:01:36;3.53;;;1.83;;
59263;SDS011;45030;42.720;23.344;2023-07-20T12:04:04;6.47;;;1.93;;
59263;SDS011;45030;42.720;23.344;2023-07-20T12:06:31;3.88;;;1.50;;
59263;SDS011;45030;42.720;23.344;2023-07-20T12:08:57;5.32;;;1.83;;
59263;SDS011;45030;42.720;23.344;2023-07-20T12:11:57;4.32;;;2.17;;
59263;SDS011;45030;42.720;23.344;2023-07-20T12:14:15;6.68;;;2.50;;
59263;SDS011;45030;42.720;23.344;2023-07-20T12:16:41;4.50;;;1.52;;
59263;SDS011;45030;42.720;23.344;2023-07-20T12:19:07;2.28;;;1.20;;
59263;SDS011;45030;42.720;23.344;2023-07-20T12:21:35;8.00;;;2.08;;
59263;SDS011;45030;42.720;23.344;2023-07-20T12:24:05;7.50;;;1.70;;
59263;SDS011;45030;42.720;23.344;2023-07-20T12:26:30;4.72;;;1.77;;
59263;SDS011;45030;42.720;23.344;2023-07-20T12:28:56;5.63;;;1.73;;
59263;SDS011;45030;42.720;23.344;2023-07-20T12:31:22;6.55;;;1.70;;
59263;SDS011;45030;42.720;23.344;2023-07-20T12:33:48;5.35;;;1.63;;
59263;SDS011;45030;42.720;23.344;2023-07-20T12:36:14;4.20;;;1.60;;
59263;SDS011;45030;42.720;23.344;2023-07-20T12:38:39;4.25;;;1.40;;
59263;SDS011;45030;42.720;23.344;2023-07-20T12:41:06;4.18;;;1.55;;
59263;SDS011;45030;42.720;23.344;2023-07-20T12:43:31;4.28;;;1.30;;
59263;SDS011;45030;42.720;23.344;2023-07-20T12:45:57;2.23;;;1.20;;
59263;SDS011;45030;42.720;23.344;2023-07-20T12:48:22;3.78;;;1.30;;
59263;SDS011;45030;42.720;23.344;2023-07-20T12:50:48;6.73;;;1.63;;
59263;SDS011;45030;42.720;23.344;2023-07-20T12:53:13;3.97;;;1.40;;
59263;SDS011;45030;42.720;23.344;2023-07-20T12:55:38;4.10;;;1.43;;
59263;SDS011;45030;42.720;23.344;2023-07-20T12:58:04;6.80;;;1.60;;
59263;SDS011;45030;42.720;23.344;2023-07-20T13:00:30;3.70;;;1.58;;
59263;SDS011;45030;42.720;23.344;2023-07-20T13:02:55;4.47;;;1.60;;
59263;SDS011;45030;42.720;23.344;2023-07-20T13:05:20;5.43;;;1.50;;
59263;SDS011;45030;42.720;23.344;2023-07-20T13:07:45;5.30;;;1.23;;
59263;SDS011;45030;42.720;23.344;2023-07-20T13:10:11;5.47;;;1.60;;
59263;SDS011;45030;42.720;23.344;2023-07-20T13:12:37;6.72;;;1.83;;
59263;SDS011;45030;42.720;23.344;2023-07-20T13:15:02;6.18;;;1.58;;
59263;SDS011;45030;42.720;23.344;2023-07-20T13:17:30;4.78;;;1.73;;
59263;SDS011;45030;42.720;23.344;2023-07-20T13:19:56;3.00;;;1.70;;
59263;SDS011;45030;42.720;23.344;2023-07-20T13:22:21;7.73;;;1.93;;
59263;SDS011;45030;42.720;23.344;2023-07-20T13:24:46;3.33;;;1.10;;
59263;SDS011;45030;42.720;23.344;2023-07-20T13:27:14;3.13;;;1.60;;
59263;SDS011;45030;42.720;23.344;2023-07-20T13:29:40;4.30;;;1.42;;
59263;SDS011;45030;42.720;23.344;2023-07-20T13:32:06;6.33;;;1.70;;
59263;SDS011;45030;42.720;23.344;2023-07-20T13:34:31;3.22;;;1.58;;
59263;SDS011;45030;42.720;23.344;2023-07-20T13:36:57;2.90;;;1.40;;
59263;SDS011;45030;42.720;23.344;2023-07-20T13:39:22;4.07;;;1.60;;
59263;SDS011;45030;42.720;23.344;2023-07-20T13:41:49;6.80;;;1.35;;
59263;SDS011;45030;42.720;23.344;2023-07-20T13:44:14;4.65;;;1.35;;
59263;SDS011;45030;42.720;23.344;2023-07-20T13:46:39;3.53;;;1.60;;
59263;SDS011;45030;42.720;23.344;2023-07-20T13:49:05;4.17;;;1.30;;
59263;SDS011;45030;42.720;23.344;2023-07-20T13:51:30;5.87;;;1.93;;
59263;SDS011;45030;42.720;23.344;2023-07-20T13:53:56;4.33;;;1.37;;
59263;SDS011;45030;42.720;23.344;2023-07-20T13:56:22;3.90;;;1.83;;
59263;SDS011;45030;42.720;23.344;2023-07-20T13:58:48;6.10;;;2.78;;
59263;SDS011;45030;42.720;23.344;2023-07-20T14:01:13;8.17;;;1.60;;
59263;SDS011;45030;42.720;23.344;2023-07-20T14:03:38;2.90;;;1.07;;
59263;SDS011;45030;42.720;23.344;2023-07-20T14:06:03;3.60;;;1.25;;
59263;SDS011;45030;42.720;23.344;2023-07-20T14:08:29;3.47;;;1.60;;
59263;SDS011;45030;42.720;23.344;2023-07-20T14:10:55;3.05;;;1.38;;
59263;SDS011;45030;42.720;23.344;2023-07-20T14:13:20;3.10;;;1.33;;
59263;SDS011;45030;42.720;23.344;2023-07-20T14:15:45;4.87;;;1.33;;
59263;SDS011;45030;42.720;23.344;2023-07-20T14:18:10;5.90;;;1.40;;
59263;SDS011;45030;42.720;23.344;2023-07-20T14:20:36;3.50;;;1.20;;
59263;SDS011;45030;42.720;23.344;2023-07-20T14:23:01;8.35;;;1.17;;
59263;SDS011;45030;42.720;23.344;2023-07-20T14:25:26;4.13;;;1.10;;
59263;SDS011;45030;42.720;23.344;2023-07-20T14:27:51;7.80;;;1.70;;
59263;SDS011;45030;42.720;23.344;2023-07-20T14:30:17;4.77;;;1.80;;
59263;SDS011;45030;42.720;23.344;2023-07-20T14:32:43;4.43;;;1.20;;
59263;SDS011;45030;42.720;23.344;2023-07-20T14:35:08;6.90;;;1.40;;
59263;SDS011;45030;42.720;23.344;2023-07-20T14:37:34;4.03;;;1.48;;
59263;SDS011;45030;42.720;23.344;2023-07-20T14:39:59;3.22;;;1.10;;
59263;SDS011;45030;42.720;23.344;2023-07-20T14:42:24;3.17;;;1.30;;
59263;SDS011;45030;42.720;23.344;2023-07-20T14:44:50;2.35;;;1.20;;